sensor_id;sensor_type;location;lat;lon;timestamp;P1;durP1;ratioP1;P2;durP2;ratioP2
12650;SDS011;6390;49.400;8.670;2023-04-06T03:32:56;2.20;;;2.00;;
12650;SDS011;6390;49.400;8.670;2023-04-06T03:35:23;2.80;;;2.30;;
12650;SDS011;6390;49.400;8.670;2023-04-06T03:37:49;2.70;;;2.20;;
12650;SDS011;6390;49.400;8.670;2023-04-06T03:40:15;2.50;;;2.30;;
12650;SDS011;6390;49.400;8.670;2023-04-06T03:42:42;2.90;;;2.60;;
12650;SDS011;6390;49.400;8.670;2023-04-06T03:45:08;2.60;;;2.40;;
12650;SDS011;6390;49.400;8.670;2023-04-06T03:47:35;3.22;;;2.63;;
12650;SDS011;6390;49.400;8.670;2023-04-06T03:50:01;3.00;;;2.70;;
12650;SDS011;6390;49.400;8.670;2023-04-06T03:52:28;3.58;;;2.70;;
12650;SDS011;6390;49.400;8.670;2023-04-06T03:54:54;3.03;;;2.67;;
12650;SDS011;6390;49.400;8.670;2023-04-06T03:57:20;2.97;;;2.50;;
12650;SDS011;6390;49.400;8.670;2023-04-06T03:59:46;2.95;;;2.60;;
12650;SDS011;6390;49.400;8.670;2023-04-06T04:02:12;3.80;;;2.70;;
12650;SDS011;6390;49.400;8.670;2023-04-06T04:04:38;3.07;;;2.50;;
12650;SDS011;6390;49.400;8.670;2023-04-06T04:07:05;2.60;;;2.40;;
12650;SDS011;6390;49.400;8.670;2023-04-06T04:09:31;3.17;;;2.72;;
12650;SDS011;6390;49.400;8.670;2023-04-06T04:11:57;3.55;;;2.92;;
12650;SDS011;6390;49.400;8.670;2023-04-06T04:14:23;3.45;;;2.72;;
12650;SDS011;6390;49.400;8.670;2023-04-06T04:16:50;3.47;;;3.07;;
12650;SDS011;6390;49.400;8.670;2023-04-06T04:19:16;3.17;;;2.88;;
12650;SDS011;6390;49.400;8.670;2023-04-06T04:21:43;4.13;;;2.90;;
12650;SDS011;6390;49.400;8.670;2023-04-06T04:24:11;2.80;;;2.60;;
12650;SDS011;6390;49.400;8.670;2023-04-06T04:26:37;3.07;;;2.67;;
12650;SDS011;6390;49.400;8.670;2023-04-06T04:29:04;3.43;;;2.80;;
12650;SDS011;6390;49.400;8.670;2023-04-06T04:31:31;3.40;;;2.80;;
12650;SDS011;6390;49.400;8.670;2023-04-06T04:33:57;4.87;;;2.73;;
12650;SDS011;6390;49.400;8.670;2023-04-06T04:36:24;3.20;;;2.67;;
12650;SDS011;6390;49.400;8.670;2023-04-06T04:38:51;3.33;;;2.80;;
12650;SDS011;6390;49.400;8.670;2023-04-06T04:41:18;4.53;;;3.47;;
12650;SDS011;6390;49.400;8.670;2023-04-06T04:43:44;4.43;;;2.88;;
12650;SDS011;6390;49.400;8.670;2023-04-06T04:46:10;3.03;;;2.57;;
12650;SDS011;6390;49.400;8.670;2023-04-06T04:48:36;2.87;;;2.67;;
12650;SDS011;6390;49.400;8.670;2023-04-06T04:51:03;3.47;;;2.45;;
12650;SDS011;6390;49.400;8.670;2023-04-06T04:53:30;3.53;;;2.63;;
12650;SDS011;6390;49.400;8.670;2023-04-06T04:55:56;4.17;;;2.80;;
12650;SDS011;6390;49.400;8.670;2023-04-06T04:58:22;7.80;;;2.97;;
12650;SDS011;6390;49.400;8.670;2023-04-06T05:00:48;4.53;;;3.00;;
12650;SDS011;6390;49.400;8.670;2023-04-06T05:03:18;5.32;;;2.85;;
12650;SDS011;6390;49.400;8.670;2023-04-06T05:05:47;3.30;;;2.67;;
12650;SDS011;6390;49.400;8.670;2023-04-06T05:08:13;3.15;;;2.85;;
12650;SDS011;6390;49.400;8.670;2023-04-06T05:10:40;5.25;;;2.88;;
12650;SDS011;6390;49.400;8.670;2023-04-06T05:13:06;3.95;;;3.05;;
12650;SDS011;6390;49.400;8.670;2023-04-06T05:15:33;7.53;;;2.90;;
12650;SDS011;6390;49.400;8.670;2023-04-06T05:18:05;3.20;;;2.78;;
12650;SDS011;6390;49.400;8.670;2023-04-06T05:20:32;6.22;;;3.05;;
12650;SDS011;6390;49.400;8.670;2023-04-06T05:22:59;3.70;;;3.30;;
12650;SDS011;6390;49.400;8.670;2023-04-06T05:25:25;4.00;;;3.05;;
12650;SDS011;6390;49.400;8.670;2023-04-06T05:27:52;3.25;;;3.00;;
12650;SDS011;6390;49.400;8.670;2023-04-06T05:30:18;3.50;;;3.20;;
12650;SDS011;6390;49.400;8.670;2023-04-06T05:32:45;4.93;;;3.67;;
12650;SDS011;6390;49.400;8.670;2023-04-06T05:35:11;3.15;;;2.85;;
12650;SDS011;6390;49.400;8.670;2023-04-06T05:37:38;3.30;;;2.97;;
12650;SDS011;6390;49.400;8.670;2023-04-06T05:40:05;5.22;;;3.47;;
12650;SDS011;6390;49.400;8.670;2023-04-06T05:42:38;4.25;;;3.60;;
12650;SDS011;6390;49.400;8.670;2023-04-06T05:45:06;4.32;;;3.92;;
12650;SDS011;6390;49.400;8.670;2023-04-06T05:47:33;8.50;;;3.35;;
12650;SDS011;6390;49.400;8.670;2023-04-06T05:49:59;5.43;;;3.40;;
12650;SDS011;6390;49.400;8.670;2023-04-06T05:52:25;6.70;;;3.58;;
12650;SDS011;6390;49.400;8.670;2023-04-06T05:54:52;7.25;;;3.72;;
12650;SDS011;6390;49.400;8.670;2023-04-06T05:57:18;6.22;;;3.95;;
12650;SDS011;6390;49.400;8.670;2023-04-06T05:59:44;5.50;;;3.92;;
12650;SDS011;6390;49.400;8.670;2023-04-06T06:02:11;4.93;;;3.75;;
12650;SDS011;6390;49.400;8.670;2023-04-06T06:04:37;5.43;;;3.65;;
12650;SDS011;6390;49.400;8.670;2023-04-06T06:07:03;6.75;;;3.30;;
12650;SDS011;6390;49.400;8.670;2023-04-06T06:09:30;4.60;;;3.80;;
12650;SDS011;6390;49.400;8.670;2023-04-06T06:11:56;7.78;;;3.28;;
12650;SDS011;6390;49.400;8.670;2023-04-06T06:14:22;4.40;;;3.83;;
12650;SDS011;6390;49.400;8.670;2023-04-06T06:16:48;4.50;;;3.70;;
12650;SDS011;6390;49.400;8.670;2023-04-06T06:19:14;6.00;;;3.70;;
12650;SDS011;6390;49.400;8.670;2023-04-06T06:21:40;4.00;;;3.63;;
12650;SDS011;6390;49.400;8.670;2023-04-06T06:24:07;3.83;;;3.40;;
12650;SDS011;6390;49.400;8.670;2023-04-06T06:26:33;4.10;;;3.67;;
12650;SDS011;6390;49.400;8.670;2023-04-06T06:29:02;4.30;;;3.72;;
12650;SDS011;6390;49.400;8.670;2023-04-06T06:31:30;4.18;;;3.78;;
12650;SDS011;6390;49.400;8.670;2023-04-06T06:33:56;4.38;;;3.80;;
12650;SDS011;6390;49.400;8.670;2023-04-06T06:36:22;4.40;;;3.90;;
12650;SDS011;6390;49.400;8.670;2023-04-06T06:38:48;3.92;;;3.50;;
12650;SDS011;6390;49.400;8.670;2023-04-06T06:41:15;4.13;;;3.72;;
12650;SDS011;6390;49.400;8.670;2023-04-06T06:43:41;4.35;;;3.95;;
12650;SDS011;6390;49.400;8.670;2023-04-06T06:46:07;4.97;;;4.00;;
12650;SDS011;6390;49.400;8.670;2023-04-06T06:48:33;4.30;;;3.90;;
12650;SDS011;6390;49.400;8.670;2023-04-06T06:50:59;5.32;;;4.30;;
12650;SDS011;6390;49.400;8.670;2023-04-06T06:53:26;4.22;;;3.80;;
12650;SDS011;6390;49.400;8.670;2023-04-06T06:55:52;4.53;;;3.75;;
12650;SDS011;6390;49.400;8.670;2023-04-06T06:58:18;5.18;;;4.60;;
12650;SDS011;6390;49.400;8.670;2023-04-06T07:00:45;6.25;;;4.80;;
12650;SDS011;6390;49.400;8.670;2023-04-06T07:03:12;5.10;;;4.00;;
12650;SDS011;6390;49.400;8.670;2023-04-06T07:05:38;4.38;;;3.95;;
12650;SDS011;6390;49.400;8.670;2023-04-06T07:08:10;5.63;;;4.25;;
12650;SDS011;6390;49.400;8.670;2023-04-06T07:10:36;4.18;;;3.75;;
12650;SDS011;6390;49.400;8.670;2023-04-06T07:13:02;5.70;;;4.10;;
12650;SDS011;6390;49.400;8.670;2023-04-06T07:15:28;9.25;;;4.10;;
12650;SDS011;6390;49.400;8.670;2023-04-06T07:17:55;4.22;;;3.45;;
12650;SDS011;6390;49.400;8.670;2023-04-06T07:20:21;4.85;;;3.75;;
12650;SDS011;6390;49.400;8.670;2023-04-06T07:22:47;5.45;;;4.28;;
12650;SDS011;6390;49.400;8.670;2023-04-06T07:25:13;4.72;;;4.13;;
12650;SDS011;6390;49.400;8.670;2023-04-06T07:27:39;5.80;;;4.25;;
12650;SDS011;6390;49.400;8.670;2023-04-06T07:30:06;6.03;;;4.13;;
12650;SDS011;6390;49.400;8.670;2023-04-06T07:32:33;4.50;;;4.05;;
12650;SDS011;6390;49.400;8.670;2023-04-06T07:35:00;4.68;;;4.18;;
12650;SDS011;6390;49.400;8.670;2023-04-06T07:37:27;4.93;;;3.78;;
12650;SDS011;6390;49.400;8.670;2023-04-06T07:39:53;4.80;;;3.83;;
12650;SDS011;6390;49.400;8.670;2023-04-06T07:42:19;4.80;;;4.00;;
12650;SDS011;6390;49.400;8.670;2023-04-06T07:44:45;4.97;;;4.53;;
12650;SDS011;6390;49.400;8.670;2023-04-06T07:47:12;4.32;;;3.88;;
12650;SDS011;6390;49.400;8.670;2023-04-06T07:49:39;4.78;;;3.97;;
12650;SDS011;6390;49.400;8.670;2023-04-06T07:52:05;4.32;;;3.92;;
12650;SDS011;6390;49.400;8.670;2023-04-06T07:54:31;4.38;;;3.78;;
12650;SDS011;6390;49.400;8.670;2023-04-06T07:56:57;4.75;;;4.10;;
12650;SDS011;6390;49.400;8.670;2023-04-06T07:59:23;4.57;;;4.07;;
12650;SDS011;6390;49.400;8.670;2023-04-06T08:01:49;5.30;;;3.90;;
12650;SDS011;6390;49.400;8.670;2023-04-06T08:04:15;3.58;;;3.25;;
12650;SDS011;6390;49.400;8.670;2023-04-06T08:06:41;3.88;;;3.58;;
12650;SDS011;6390;49.400;8.670;2023-04-06T08:09:07;5.30;;;3.67;;
12650;SDS011;6390;49.400;8.670;2023-04-06T08:11:34;3.83;;;3.53;;
12650;SDS011;6390;49.400;8.670;2023-04-06T08:14:00;5.85;;;3.80;;
12650;SDS011;6390;49.400;8.670;2023-04-06T08:16:26;4.55;;;3.60;;
12650;SDS011;6390;49.400;8.670;2023-04-06T08:18:52;3.30;;;3.03;;
12650;SDS011;6390;49.400;8.670;2023-04-06T08:21:18;3.35;;;3.05;;
12650;SDS011;6390;49.400;8.670;2023-04-06T08:23:44;3.35;;;2.97;;
12650;SDS011;6390;49.400;8.670;2023-04-06T08:26:11;3.22;;;2.92;;
12650;SDS011;6390;49.400;8.670;2023-04-06T08:28:37;3.20;;;2.97;;
12650;SDS011;6390;49.400;8.670;2023-04-06T08:31:06;3.42;;;2.95;;
12650;SDS011;6390;49.400;8.670;2023-04-06T08:33:33;2.90;;;2.65;;
12650;SDS011;6390;49.400;8.670;2023-04-06T08:36:08;2.63;;;2.42;;
12650;SDS011;6390;49.400;8.670;2023-04-06T08:38:38;3.10;;;2.75;;
12650;SDS011;6390;49.400;8.670;2023-04-06T08:41:12;4.55;;;2.75;;
12650;SDS011;6390;49.400;8.670;2023-04-06T08:43:43;2.83;;;2.47;;
12650;SDS011;6390;49.400;8.670;2023-04-06T08:46:13;3.63;;;2.60;;
12650;SDS011;6390;49.400;8.670;2023-04-06T08:48:40;3.20;;;2.80;;
12650;SDS011;6390;49.400;8.670;2023-04-06T08:51:10;3.42;;;2.67;;
12650;SDS011;6390;49.400;8.670;2023-04-06T08:53:37;4.40;;;2.80;;
12650;SDS011;6390;49.400;8.670;2023-04-06T08:56:04;3.60;;;2.65;;
12650;SDS011;6390;49.400;8.670;2023-04-06T08:58:34;2.88;;;2.53;;
12650;SDS011;6390;49.400;8.670;2023-04-06T09:01:04;2.75;;;2.50;;
12650;SDS011;6390;49.400;8.670;2023-04-06T09:03:35;2.92;;;2.60;;
12650;SDS011;6390;49.400;8.670;2023-04-06T09:06:04;3.67;;;3.30;;
12650;SDS011;6390;49.400;8.670;2023-04-06T09:08:33;3.75;;;2.63;;
12650;SDS011;6390;49.400;8.670;2023-04-06T09:11:04;2.80;;;2.50;;
12650;SDS011;6390;49.400;8.670;2023-04-06T09:13:30;3.28;;;2.40;;
12650;SDS011;6390;49.400;8.670;2023-04-06T09:16:03;3.00;;;2.58;;
12650;SDS011;6390;49.400;8.670;2023-04-06T09:18:32;3.05;;;2.75;;
12650;SDS011;6390;49.400;8.670;2023-04-06T09:20:59;3.70;;;2.33;;
12650;SDS011;6390;49.400;8.670;2023-04-06T09:23:28;4.05;;;2.33;;
12650;SDS011;6390;49.400;8.670;2023-04-06T09:28:50;2.90;;;2.42;;
12650;SDS011;6390;49.400;8.670;2023-04-06T09:31:25;4.40;;;2.58;;
12650;SDS011;6390;49.400;8.670;2023-04-06T09:33:57;2.47;;;2.28;;
12650;SDS011;6390;49.400;8.670;2023-04-06T09:36:34;2.78;;;2.33;;
12650;SDS011;6390;49.400;8.670;2023-04-06T09:39:06;2.85;;;2.25;;
12650;SDS011;6390;49.400;8.670;2023-04-06T09:41:33;2.60;;;2.35;;
12650;SDS011;6390;49.400;8.670;2023-04-06T09:44:01;2.40;;;2.20;;
12650;SDS011;6390;49.400;8.670;2023-04-06T09:46:30;2.80;;;2.35;;
12650;SDS011;6390;49.400;8.670;2023-04-06T09:49:03;2.47;;;2.28;;
12650;SDS011;6390;49.400;8.670;2023-04-06T09:51:31;2.78;;;2.58;;
12650;SDS011;6390;49.400;8.670;2023-04-06T09:54:03;2.50;;;2.10;;
12650;SDS011;6390;49.400;8.670;2023-04-06T09:56:45;3.28;;;2.03;;
12650;SDS011;6390;49.400;8.670;2023-04-06T10:02:44;2.10;;;2.00;;
12650;SDS011;6390;49.400;8.670;2023-04-06T10:05:28;2.30;;;2.10;;
12650;SDS011;6390;49.400;8.670;2023-04-06T10:08:15;2.28;;;2.03;;
12650;SDS011;6390;49.400;8.670;2023-04-06T10:10:42;2.38;;;2.17;;
12650;SDS011;6390;49.400;8.670;2023-04-06T10:13:09;2.42;;;2.20;;
12650;SDS011;6390;49.400;8.670;2023-04-06T10:15:38;2.22;;;2.03;;
12650;SDS011;6390;49.400;8.670;2023-04-06T10:18:07;3.90;;;2.22;;
12650;SDS011;6390;49.400;8.670;2023-04-06T10:20:48;3.33;;;2.15;;
12650;SDS011;6390;49.400;8.670;2023-04-06T10:23:24;2.28;;;2.08;;
12650;SDS011;6390;49.400;8.670;2023-04-06T10:26:11;2.10;;;2.00;;
12650;SDS011;6390;49.400;8.670;2023-04-06T10:28:41;3.03;;;2.05;;
12650;SDS011;6390;49.400;8.670;2023-04-06T10:31:08;2.20;;;2.00;;
12650;SDS011;6390;49.400;8.670;2023-04-06T10:33:35;2.22;;;2.03;;
12650;SDS011;6390;49.400;8.670;2023-04-06T10:36:14;2.55;;;2.30;;
12650;SDS011;6390;49.400;8.670;2023-04-06T10:38:53;2.15;;;1.95;;
12650;SDS011;6390;49.400;8.670;2023-04-06T10:41:31;2.83;;;2.03;;
12650;SDS011;6390;49.400;8.670;2023-04-06T10:43:59;2.70;;;2.13;;
12650;SDS011;6390;49.400;8.670;2023-04-06T10:46:29;2.42;;;2.20;;
12650;SDS011;6390;49.400;8.670;2023-04-06T10:48:58;2.20;;;2.00;;
12650;SDS011;6390;49.400;8.670;2023-04-06T10:51:37;3.92;;;2.20;;
12650;SDS011;6390;49.400;8.670;2023-04-06T10:54:05;3.00;;;2.45;;
12650;SDS011;6390;49.400;8.670;2023-04-06T10:56:32;7.65;;;2.13;;
12650;SDS011;6390;49.400;8.670;2023-04-06T10:59:00;3.15;;;1.88;;
12650;SDS011;6390;49.400;8.670;2023-04-06T11:01:27;2.70;;;1.98;;
12650;SDS011;6390;49.400;8.670;2023-04-06T11:03:54;3.58;;;2.00;;
12650;SDS011;6390;49.400;8.670;2023-04-06T11:06:24;2.55;;;2.10;;
12650;SDS011;6390;49.400;8.670;2023-04-06T11:08:54;3.88;;;2.03;;
12650;SDS011;6390;49.400;8.670;2023-04-06T11:11:22;6.03;;;2.08;;
12650;SDS011;6390;49.400;8.670;2023-04-06T11:13:57;2.30;;;2.10;;
12650;SDS011;6390;49.400;8.670;2023-04-06T11:16:29;2.15;;;1.95;;
12650;SDS011;6390;49.400;8.670;2023-04-06T11:18:57;2.35;;;2.00;;
12650;SDS011;6390;49.400;8.670;2023-04-06T11:21:37;2.17;;;1.92;;
12650;SDS011;6390;49.400;8.670;2023-04-06T11:24:12;5.70;;;2.00;;
12650;SDS011;6390;49.400;8.670;2023-04-06T11:26:50;1.75;;;1.52;;
12650;SDS011;6390;49.400;8.670;2023-04-06T11:29:22;2.38;;;1.90;;
12650;SDS011;6390;49.400;8.670;2023-04-06T11:31:51;2.15;;;1.95;;
12650;SDS011;6390;49.400;8.670;2023-04-06T11:34:24;3.97;;;2.05;;
12650;SDS011;6390;49.400;8.670;2023-04-06T11:36:55;2.35;;;2.15;;
12650;SDS011;6390;49.400;8.670;2023-04-06T11:39:23;2.20;;;2.00;;
12650;SDS011;6390;49.400;8.670;2023-04-06T11:41:52;3.58;;;1.98;;
12650;SDS011;6390;49.400;8.670;2023-04-06T11:47:02;3.63;;;2.45;;
12650;SDS011;6390;49.400;8.670;2023-04-06T11:49:29;2.45;;;2.00;;
12650;SDS011;6390;49.400;8.670;2023-04-06T11:51:57;3.95;;;2.22;;
12650;SDS011;6390;49.400;8.670;2023-04-06T11:54:34;2.38;;;2.17;;
12650;SDS011;6390;49.400;8.670;2023-04-06T11:57:05;2.42;;;2.22;;
12650;SDS011;6390;49.400;8.670;2023-04-06T11:59:32;3.83;;;2.13;;
12650;SDS011;6390;49.400;8.670;2023-04-06T12:01:58;2.38;;;2.17;;
12650;SDS011;6390;49.400;8.670;2023-04-06T12:04:26;4.05;;;2.65;;
12650;SDS011;6390;49.400;8.670;2023-04-06T12:06:52;4.22;;;2.88;;
12650;SDS011;6390;49.400;8.670;2023-04-06T12:09:18;2.85;;;2.63;;
12650;SDS011;6390;49.400;8.670;2023-04-06T12:11:44;3.20;;;2.90;;
12650;SDS011;6390;49.400;8.670;2023-04-06T12:14:11;3.20;;;2.90;;
12650;SDS011;6390;49.400;8.670;2023-04-06T12:16:37;2.97;;;2.65;;
12650;SDS011;6390;49.400;8.670;2023-04-06T12:19:03;6.20;;;2.70;;
12650;SDS011;6390;49.400;8.670;2023-04-06T12:21:30;2.92;;;2.67;;
12650;SDS011;6390;49.400;8.670;2023-04-06T12:23:58;2.78;;;2.58;;
12650;SDS011;6390;49.400;8.670;2023-04-06T12:26:25;3.92;;;2.75;;
12650;SDS011;6390;49.400;8.670;2023-04-06T12:28:52;2.70;;;2.50;;
12650;SDS011;6390;49.400;8.670;2023-04-06T12:31:19;3.30;;;2.88;;
12650;SDS011;6390;49.400;8.670;2023-04-06T12:33:47;2.90;;;2.70;;
12650;SDS011;6390;49.400;8.670;2023-04-06T12:36:15;3.53;;;3.03;;
12650;SDS011;6390;49.400;8.670;2023-04-06T12:38:49;3.60;;;3.10;;
12650;SDS011;6390;49.400;8.670;2023-04-06T12:41:16;3.17;;;2.88;;
12650;SDS011;6390;49.400;8.670;2023-04-06T12:43:43;3.45;;;3.15;;
12650;SDS011;6390;49.400;8.670;2023-04-06T12:46:10;3.28;;;2.97;;
12650;SDS011;6390;49.400;8.670;2023-04-06T12:48:37;3.42;;;3.13;;
12650;SDS011;6390;49.400;8.670;2023-04-06T12:51:04;3.92;;;2.95;;
12650;SDS011;6390;49.400;8.670;2023-04-06T12:53:31;4.10;;;3.08;;
12650;SDS011;6390;49.400;8.670;2023-04-06T12:55:59;3.47;;;3.00;;
12650;SDS011;6390;49.400;8.670;2023-04-06T12:58:26;3.38;;;3.08;;
12650;SDS011;6390;49.400;8.670;2023-04-06T13:00:53;3.78;;;3.10;;
12650;SDS011;6390;49.400;8.670;2023-04-06T13:03:21;3.83;;;3.13;;
12650;SDS011;6390;49.400;8.670;2023-04-06T13:05:47;3.58;;;2.70;;
12650;SDS011;6390;49.400;8.670;2023-04-06T13:08:16;3.28;;;2.95;;
12650;SDS011;6390;49.400;8.670;2023-04-06T13:10:44;3.65;;;2.75;;
12650;SDS011;6390;49.400;8.670;2023-04-06T13:13:16;3.60;;;3.30;;
12650;SDS011;6390;49.400;8.670;2023-04-06T13:15:53;3.85;;;3.10;;
12650;SDS011;6390;49.400;8.670;2023-04-06T13:18:24;3.47;;;2.97;;
12650;SDS011;6390;49.400;8.670;2023-04-06T13:20:50;3.17;;;2.80;;
12650;SDS011;6390;49.400;8.670;2023-04-06T13:23:16;4.80;;;3.47;;
12650;SDS011;6390;49.400;8.670;2023-04-06T13:25:42;3.13;;;2.80;;
12650;SDS011;6390;49.400;8.670;2023-04-06T13:28:08;3.88;;;2.60;;
12650;SDS011;6390;49.400;8.670;2023-04-06T13:30:35;3.70;;;3.00;;
12650;SDS011;6390;49.400;8.670;2023-04-06T13:33:01;3.70;;;3.13;;
12650;SDS011;6390;49.400;8.670;2023-04-06T13:35:27;3.30;;;2.55;;
12650;SDS011;6390;49.400;8.670;2023-04-06T13:37:54;3.00;;;2.70;;
12650;SDS011;6390;49.400;8.670;2023-04-06T13:40:20;3.97;;;3.00;;
12650;SDS011;6390;49.400;8.670;2023-04-06T13:42:46;3.33;;;3.00;;
12650;SDS011;6390;49.400;8.670;2023-04-06T13:45:13;2.85;;;2.63;;
12650;SDS011;6390;49.400;8.670;2023-04-06T13:47:39;3.28;;;2.97;;
12650;SDS011;6390;49.400;8.670;2023-04-06T13:50:06;2.90;;;2.45;;
12650;SDS011;6390;49.400;8.670;2023-04-06T13:52:32;3.13;;;2.80;;
12650;SDS011;6390;49.400;8.670;2023-04-06T13:55:00;3.28;;;2.97;;
12650;SDS011;6390;49.400;8.670;2023-04-06T13:57:27;3.10;;;2.65;;
12650;SDS011;6390;49.400;8.670;2023-04-06T13:59:54;3.28;;;2.80;;
12650;SDS011;6390;49.400;8.670;2023-04-06T14:02:21;2.78;;;2.30;;
12650;SDS011;6390;49.400;8.670;2023-04-06T14:04:51;2.80;;;2.50;;
12650;SDS011;6390;49.400;8.670;2023-04-06T14:07:20;3.53;;;2.60;;
12650;SDS011;6390;49.400;8.670;2023-04-06T14:09:47;3.67;;;2.80;;
12650;SDS011;6390;49.400;8.670;2023-04-06T14:12:13;2.65;;;2.45;;
12650;SDS011;6390;49.400;8.670;2023-04-06T14:14:39;3.97;;;2.90;;
12650;SDS011;6390;49.400;8.670;2023-04-06T14:17:05;4.00;;;2.40;;
12650;SDS011;6390;49.400;8.670;2023-04-06T14:19:31;2.70;;;2.40;;
12650;SDS011;6390;49.400;8.670;2023-04-06T14:21:57;2.53;;;2.30;;
12650;SDS011;6390;49.400;8.670;2023-04-06T14:24:23;2.53;;;2.28;;
12650;SDS011;6390;49.400;8.670;2023-04-06T14:26:50;2.70;;;2.50;;
12650;SDS011;6390;49.400;8.670;2023-04-06T14:29:16;2.90;;;2.55;;
12650;SDS011;6390;49.400;8.670;2023-04-06T14:31:42;2.50;;;2.30;;
12650;SDS011;6390;49.400;8.670;2023-04-06T14:34:10;3.08;;;2.67;;
12650;SDS011;6390;49.400;8.670;2023-04-06T14:36:36;2.88;;;2.45;;
12650;SDS011;6390;49.400;8.670;2023-04-06T14:39:03;3.50;;;2.45;;
12650;SDS011;6390;49.400;8.670;2023-04-06T14:41:30;4.28;;;3.00;;
12650;SDS011;6390;49.400;8.670;2023-04-06T14:43:57;3.42;;;2.90;;
12650;SDS011;6390;49.400;8.670;2023-04-06T14:46:24;3.45;;;2.90;;
12650;SDS011;6390;49.400;8.670;2023-04-06T14:48:51;3.30;;;2.53;;
12650;SDS011;6390;49.400;8.670;2023-04-06T14:51:21;3.63;;;2.60;;
12650;SDS011;6390;49.400;8.670;2023-04-06T14:53:52;3.35;;;2.50;;
12650;SDS011;6390;49.400;8.670;2023-04-06T14:56:19;3.70;;;3.05;;
12650;SDS011;6390;49.400;8.670;2023-04-06T14:58:46;3.50;;;2.90;;
12650;SDS011;6390;49.400;8.670;2023-04-06T15:01:13;3.15;;;2.80;;
12650;SDS011;6390;49.400;8.670;2023-04-06T15:03:40;3.63;;;2.75;;
12650;SDS011;6390;49.400;8.670;2023-04-06T15:06:10;4.72;;;2.88;;
12650;SDS011;6390;49.400;8.670;2023-04-06T15:08:40;3.15;;;2.60;;
12650;SDS011;6390;49.400;8.670;2023-04-06T15:11:06;4.20;;;3.00;;
12650;SDS011;6390;49.400;8.670;2023-04-06T15:13:33;3.10;;;2.58;;
12650;SDS011;6390;49.400;8.670;2023-04-06T15:15:59;3.33;;;2.40;;
12650;SDS011;6390;49.400;8.670;2023-04-06T15:18:25;2.78;;;2.30;;
12650;SDS011;6390;49.400;8.670;2023-04-06T15:20:51;3.30;;;2.40;;
12650;SDS011;6390;49.400;8.670;2023-04-06T15:23:17;3.00;;;2.30;;
12650;SDS011;6390;49.400;8.670;2023-04-06T15:25:43;2.95;;;2.30;;
12650;SDS011;6390;49.400;8.670;2023-04-06T15:28:10;2.83;;;2.30;;
12650;SDS011;6390;49.400;8.670;2023-04-06T15:30:36;3.13;;;2.33;;
12650;SDS011;6390;49.400;8.670;2023-04-06T15:33:03;2.40;;;2.17;;
12650;SDS011;6390;49.400;8.670;2023-04-06T15:35:30;3.13;;;2.28;;
12650;SDS011;6390;49.400;8.670;2023-04-06T15:37:57;2.40;;;2.20;;
12650;SDS011;6390;49.400;8.670;2023-04-06T15:40:23;3.22;;;2.75;;
12650;SDS011;6390;49.400;8.670;2023-04-06T15:42:50;2.50;;;2.20;;
12650;SDS011;6390;49.400;8.670;2023-04-06T15:45:16;2.70;;;2.28;;
12650;SDS011;6390;49.400;8.670;2023-04-06T15:47:43;3.00;;;2.30;;
12650;SDS011;6390;49.400;8.670;2023-04-06T15:50:10;3.75;;;2.60;;
12650;SDS011;6390;49.400;8.670;2023-04-06T15:52:38;3.03;;;2.20;;
12650;SDS011;6390;49.400;8.670;2023-04-06T15:55:05;2.42;;;2.08;;
12650;SDS011;6390;49.400;8.670;2023-04-06T15:57:33;5.43;;;2.20;;
12650;SDS011;6390;49.400;8.670;2023-04-06T16:00:00;3.08;;;2.00;;
12650;SDS011;6390;49.400;8.670;2023-04-06T16:02:27;2.55;;;2.08;;
12650;SDS011;6390;49.400;8.670;2023-04-06T16:04:54;2.40;;;2.00;;
12650;SDS011;6390;49.400;8.670;2023-04-06T16:07:21;2.42;;;2.00;;
12650;SDS011;6390;49.400;8.670;2023-04-06T16:09:48;2.67;;;2.03;;
12650;SDS011;6390;49.400;8.670;2023-04-06T16:12:16;4.63;;;1.90;;
12650;SDS011;6390;49.400;8.670;2023-04-06T16:14:43;2.00;;;1.80;;
12650;SDS011;6390;49.400;8.670;2023-04-06T16:17:09;2.05;;;1.80;;
12650;SDS011;6390;49.400;8.670;2023-04-06T16:19:36;1.77;;;1.60;;
12650;SDS011;6390;49.400;8.670;2023-04-06T16:22:03;2.15;;;1.90;;
12650;SDS011;6390;49.400;8.670;2023-04-06T16:24:29;1.60;;;1.50;;
12650;SDS011;6390;49.400;8.670;2023-04-06T16:26:55;3.78;;;2.15;;
12650;SDS011;6390;49.400;8.670;2023-04-06T16:29:22;1.85;;;1.67;;
12650;SDS011;6390;49.400;8.670;2023-04-06T16:31:51;2.08;;;1.73;;
12650;SDS011;6390;49.400;8.670;2023-04-06T16:34:18;1.50;;;1.27;;
12650;SDS011;6390;49.400;8.670;2023-04-06T16:36:44;1.70;;;1.48;;
12650;SDS011;6390;49.400;8.670;2023-04-06T16:39:10;1.77;;;1.40;;
12650;SDS011;6390;49.400;8.670;2023-04-06T16:41:36;2.08;;;1.52;;
12650;SDS011;6390;49.400;8.670;2023-04-06T16:44:03;1.98;;;1.58;;
12650;SDS011;6390;49.400;8.670;2023-04-06T16:46:30;1.58;;;1.48;;
12650;SDS011;6390;49.400;8.670;2023-04-06T16:48:58;1.60;;;1.50;;
12650;SDS011;6390;49.400;8.670;2023-04-06T16:51:24;2.10;;;1.70;;
12650;SDS011;6390;49.400;8.670;2023-04-06T16:53:51;2.55;;;1.60;;
12650;SDS011;6390;49.400;8.670;2023-04-06T16:56:18;1.85;;;1.50;;
12650;SDS011;6390;49.400;8.670;2023-04-06T16:58:44;1.73;;;1.40;;
12650;SDS011;6390;49.400;8.670;2023-04-06T17:01:21;1.80;;;1.60;;
12650;SDS011;6390;49.400;8.670;2023-04-06T17:03:52;1.92;;;1.70;;
12650;SDS011;6390;49.400;8.670;2023-04-06T17:06:19;2.28;;;1.65;;
12650;SDS011;6390;49.400;8.670;2023-04-06T17:08:45;1.80;;;1.50;;
12650;SDS011;6390;49.400;8.670;2023-04-06T17:11:12;1.77;;;1.67;;
12650;SDS011;6390;49.400;8.670;2023-04-06T17:13:39;3.42;;;1.92;;
12650;SDS011;6390;49.400;8.670;2023-04-06T17:16:06;1.88;;;1.67;;
12650;SDS011;6390;49.400;8.670;2023-04-06T17:18:33;2.35;;;1.90;;
12650;SDS011;6390;49.400;8.670;2023-04-06T17:21:03;2.42;;;2.10;;
12650;SDS011;6390;49.400;8.670;2023-04-06T17:23:32;1.75;;;1.65;;
12650;SDS011;6390;49.400;8.670;2023-04-06T17:25:58;2.08;;;1.88;;
12650;SDS011;6390;49.400;8.670;2023-04-06T17:28:27;2.40;;;1.60;;
12650;SDS011;6390;49.400;8.670;2023-04-06T17:30:53;3.25;;;1.88;;
12650;SDS011;6390;49.400;8.670;2023-04-06T17:33:20;1.83;;;1.60;;
12650;SDS011;6390;49.400;8.670;2023-04-06T17:35:47;1.65;;;1.50;;
12650;SDS011;6390;49.400;8.670;2023-04-06T17:38:13;2.88;;;2.10;;
12650;SDS011;6390;49.400;8.670;2023-04-06T17:40:40;2.40;;;2.10;;
12650;SDS011;6390;49.400;8.670;2023-04-06T17:43:06;2.85;;;2.08;;
12650;SDS011;6390;49.400;8.670;2023-04-06T17:45:32;3.15;;;2.15;;
12650;SDS011;6390;49.400;8.670;2023-04-06T17:47:58;2.70;;;1.88;;
12650;SDS011;6390;49.400;8.670;2023-04-06T17:50:24;2.05;;;1.83;;
12650;SDS011;6390;49.400;8.670;2023-04-06T17:52:50;2.03;;;1.88;;
12650;SDS011;6390;49.400;8.670;2023-04-06T17:55:17;2.42;;;1.85;;
12650;SDS011;6390;49.400;8.670;2023-04-06T17:57:47;2.42;;;2.10;;
12650;SDS011;6390;49.400;8.670;2023-04-06T18:00:14;2.60;;;2.00;;
12650;SDS011;6390;49.400;8.670;2023-04-06T18:02:43;2.38;;;2.17;;
12650;SDS011;6390;49.400;8.670;2023-04-06T18:05:10;2.40;;;1.88;;
12650;SDS011;6390;49.400;8.670;2023-04-06T18:07:36;2.40;;;2.20;;
12650;SDS011;6390;49.400;8.670;2023-04-06T18:10:02;3.08;;;2.05;;
12650;SDS011;6390;49.400;8.670;2023-04-06T18:12:29;2.53;;;2.20;;
12650;SDS011;6390;49.400;8.670;2023-04-06T18:14:56;2.90;;;2.60;;
12650;SDS011;6390;49.400;8.670;2023-04-06T18:17:22;2.50;;;2.30;;
12650;SDS011;6390;49.400;8.670;2023-04-06T18:19:48;2.22;;;2.03;;
12650;SDS011;6390;49.400;8.670;2023-04-06T18:22:14;4.35;;;2.38;;
12650;SDS011;6390;49.400;8.670;2023-04-06T18:24:41;3.78;;;2.75;;
12650;SDS011;6390;49.400;8.670;2023-04-06T18:27:07;2.45;;;2.25;;
12650;SDS011;6390;49.400;8.670;2023-04-06T18:29:34;4.15;;;2.75;;
12650;SDS011;6390;49.400;8.670;2023-04-06T18:32:00;2.85;;;2.60;;
12650;SDS011;6390;49.400;8.670;2023-04-06T18:34:26;3.17;;;2.60;;
12650;SDS011;6390;49.400;8.670;2023-04-06T18:36:53;3.55;;;2.60;;
12650;SDS011;6390;49.400;8.670;2023-04-06T18:39:19;2.90;;;2.50;;
12650;SDS011;6390;49.400;8.670;2023-04-06T18:41:45;3.15;;;2.67;;
12650;SDS011;6390;49.400;8.670;2023-04-06T18:44:11;2.47;;;2.13;;